Terminal Aerodrome Forecast
Issued by NWS

Home | Current Version | Previous Version | Text Only | Print | Product List | Glossary On
Versions: 1 2 3 4 5 6 7 8 9 10 11 12 13 14 15 16 17 18 19 20 21 22 23 24 25 26 27 28 29 30 31 32 33 34 35 36 37 38 39 40 41 42 43 44 45 46 47 48 49 50
000
FTUS42 KRAH 161322 AAB
TAFINT
TAF AMD
KINT 161322Z 1613/1712 00000KT P6SM SCT008
     FM161500 33004KT P6SM SCT024
     FM161800 30004KT P6SM VCSH BKN040
     FM162300 28005KT P6SM SCT050
     FM170500 36005KT P6SM OVC050=

USA.gov is the U.S. government's official web portal to all federal, state and local government web resources and services.